createdAt,value
2022-09-17T00:03:56.318Z,1.90
2022-09-17T00:07:57.534Z,2.53
2022-09-17T00:11:59.474Z,1.45
2022-09-17T00:16:01.122Z,1.47
2022-09-17T00:20:04.180Z,1.27
2022-09-17T00:24:07.052Z,1.37
2022-09-17T00:28:09.089Z,1.40
2022-09-17T00:32:10.460Z,1.70
2022-09-17T00:36:11.779Z,1.83
2022-09-17T00:40:13.024Z,0.97
2022-09-17T00:44:41.020Z,1.20
2022-09-17T00:48:43.112Z,1.83
2022-09-17T00:52:50.644Z,1.33
2022-09-17T00:56:51.929Z,1.43
2022-09-17T01:00:53.165Z,1.40
2022-09-17T01:04:55.303Z,1.37
2022-09-17T01:09:29.515Z,1.10
2022-09-17T01:13:43.362Z,1.70
2022-09-17T01:18:13.113Z,1.40
2022-09-17T01:22:27.120Z,1.50
2022-09-17T01:26:51.963Z,2.00
2022-09-17T01:31:03.753Z,1.50
2022-09-17T01:35:18.688Z,1.60
2022-09-17T01:39:52.205Z,1.20
2022-09-17T01:44:00.229Z,1.83
2022-09-17T01:48:14.320Z,1.60
2022-09-17T01:52:15.530Z,1.50
2022-09-17T01:56:20.207Z,2.13
2022-09-17T02:00:22.401Z,2.53
2022-09-17T02:04:27.374Z,1.60
2022-09-17T02:08:36.289Z,1.87
2022-09-17T02:12:41.185Z,2.83
2022-09-17T02:16:49.791Z,1.50
2022-09-17T02:21:00.789Z,1.70
2022-09-17T02:25:05.791Z,2.27
2022-09-17T02:29:13.614Z,1.90
2022-09-17T02:33:15.396Z,2.40
2022-09-17T02:37:16.868Z,1.67
2022-09-17T02:41:21.862Z,2.73
2022-09-17T02:45:52.486Z,2.10
2022-09-17T02:50:02.706Z,2.27
2022-09-17T02:54:10.816Z,2.23
2022-09-17T02:58:27.932Z,2.40
2022-09-17T03:02:38.445Z,2.30
2022-09-17T03:06:40.828Z,2.27
2022-09-17T03:10:42.645Z,3.43
2022-09-17T03:14:43.832Z,2.40
2022-09-17T03:18:44.972Z,2.70
2022-09-17T03:22:46.559Z,2.80
2022-09-17T03:26:48.760Z,2.23
2022-09-17T03:30:49.943Z,3.17
2022-09-17T03:34:51.036Z,2.43
2022-09-17T03:38:56.056Z,2.77
2022-09-17T03:42:57.314Z,2.70
2022-09-17T03:46:58.484Z,3.00
2022-09-17T03:50:59.674Z,2.70
2022-09-17T03:55:01.262Z,3.00
2022-09-17T03:59:02.537Z,2.97
2022-09-17T04:03:05.042Z,3.70
2022-09-17T04:07:06.232Z,3.33
2022-09-17T04:11:07.814Z,3.90
2022-09-17T04:15:10.041Z,3.83
2022-09-17T04:19:11.349Z,3.63
2022-09-17T04:23:12.782Z,3.70
2022-09-17T04:27:13.884Z,3.67
2022-09-17T04:31:15.019Z,3.43
2022-09-17T04:35:16.672Z,3.10
2022-09-17T04:39:17.828Z,3.43
2022-09-17T04:43:18.933Z,3.60
2022-09-17T04:47:20.257Z,4.13
2022-09-17T04:51:21.460Z,4.00
2022-09-17T04:55:22.641Z,3.50
2022-09-17T04:59:23.972Z,4.10
2022-09-17T05:03:25.638Z,4.80
2022-09-17T05:07:28.167Z,4.50
2022-09-17T05:11:29.417Z,4.80
2022-09-17T05:15:30.590Z,4.43
2022-09-17T05:19:31.770Z,4.03
2022-09-17T05:23:32.872Z,3.70
2022-09-17T05:27:33.966Z,3.87
2022-09-17T05:31:35.288Z,4.20
2022-09-17T05:35:36.502Z,4.40
2022-09-17T05:39:37.883Z,3.00
2022-09-17T05:43:39.064Z,3.57
2022-09-17T05:47:40.272Z,3.23
2022-09-17T05:51:41.858Z,4.00
2022-09-17T05:55:43.053Z,4.90
2022-09-17T05:59:44.228Z,3.73
2022-09-17T06:03:45.418Z,3.67
2022-09-17T06:07:46.699Z,3.70
2022-09-17T06:11:47.994Z,3.70
2022-09-17T06:15:52.071Z,3.03
2022-09-17T06:19:53.461Z,3.90
2022-09-17T06:23:54.968Z,3.80
2022-09-17T06:27:56.161Z,3.60
2022-09-17T06:31:57.394Z,4.20
2022-09-17T06:36:10.940Z,3.90
2022-09-17T06:40:10.086Z,4.50
2022-09-17T06:44:11.317Z,4.93
2022-09-17T06:48:12.500Z,3.90
2022-09-17T06:52:13.593Z,4.03
2022-09-17T06:56:15.161Z,4.23
2022-09-17T07:00:16.415Z,4.27
2022-09-17T07:04:18.285Z,3.97
2022-09-17T07:08:19.495Z,4.37
2022-09-17T07:12:21.082Z,4.50
2022-09-17T07:16:23.307Z,4.60
2022-09-17T07:20:24.688Z,4.13
2022-09-17T07:24:28.472Z,4.60
2022-09-17T07:28:29.360Z,4.03
2022-09-17T07:32:30.943Z,2.80
2022-09-17T07:36:32.050Z,4.07
2022-09-17T07:40:33.346Z,3.57
2022-09-17T07:44:34.620Z,3.60
2022-09-17T07:48:35.807Z,4.67
2022-09-17T07:52:36.976Z,3.90
2022-09-17T07:56:38.173Z,3.50
2022-09-17T08:00:39.648Z,5.17
2022-09-17T08:04:43.836Z,4.63
2022-09-17T08:08:45.634Z,3.70
2022-09-17T08:12:50.587Z,5.37
2022-09-17T08:16:51.676Z,4.67
2022-09-17T08:21:01.707Z,4.37
2022-09-17T08:25:03.877Z,3.90
2022-09-17T08:29:05.164Z,4.37
2022-09-17T08:33:06.257Z,4.50
2022-09-17T08:37:07.430Z,4.40
2022-09-17T08:41:27.571Z,4.03
2022-09-17T08:45:29.351Z,4.37
2022-09-17T08:49:34.326Z,4.60
2022-09-17T08:53:51.349Z,4.57
2022-09-17T08:58:23.921Z,4.57
2022-09-17T09:02:31.982Z,4.10
2022-09-17T09:06:45.609Z,3.40
2022-09-17T09:11:00.452Z,3.70
2022-09-17T09:15:11.859Z,4.40
2022-09-17T09:19:26.476Z,3.70
2022-09-17T09:23:43.828Z,3.90
2022-09-17T09:27:48.832Z,3.93
2022-09-17T09:32:16.211Z,3.60
2022-09-17T09:36:15.731Z,3.57
2022-09-17T09:40:35.430Z,3.47
2022-09-17T09:44:37.239Z,3.40
2022-09-17T09:48:54.108Z,3.40
2022-09-17T09:53:02.087Z,3.87
2022-09-17T09:57:07.143Z,3.10
2022-09-17T10:01:19.210Z,5.93
2022-09-17T10:05:20.410Z,4.87
2022-09-17T10:09:22.099Z,5.20
2022-09-17T10:13:24.184Z,3.07
2022-09-17T10:17:26.185Z,4.90
2022-09-17T10:21:36.008Z,4.97
2022-09-17T10:25:40.915Z,2.93
2022-09-17T10:29:48.559Z,2.23
2022-09-17T10:33:58.607Z,2.13
2022-09-17T10:37:59.844Z,3.40
2022-09-17T10:42:16.505Z,2.87
2022-09-17T10:46:27.769Z,2.33
2022-09-17T10:50:32.011Z,2.50
2022-09-17T10:54:40.012Z,2.30
2022-09-17T10:58:57.571Z,2.13
2022-09-17T11:03:20.582Z,4.90
2022-09-17T11:07:28.698Z,2.10
2022-09-17T11:12:02.528Z,2.37
2022-09-17T11:16:16.435Z,1.90
2022-09-17T11:20:47.557Z,2.33
2022-09-17T11:25:10.490Z,2.60
2022-09-17T11:29:36.435Z,1.67
2022-09-17T11:33:56.849Z,1.90
2022-09-17T11:38:08.034Z,2.40
2022-09-17T11:42:16.170Z,1.97
2022-09-17T11:46:24.222Z,2.30
2022-09-17T11:50:29.244Z,2.40
2022-09-17T11:54:39.634Z,1.40
2022-09-17T11:58:47.725Z,1.77
2022-09-17T12:03:02.481Z,2.30
2022-09-17T12:07:28.835Z,2.10
2022-09-17T12:11:39.383Z,2.23
2022-09-17T12:15:46.140Z,2.20
2022-09-17T12:20:10.165Z,1.80
2022-09-17T12:24:28.819Z,1.63
2022-09-17T12:28:36.783Z,1.60
2022-09-17T12:33:00.320Z,1.57
2022-09-17T12:37:23.290Z,1.30
2022-09-17T12:41:40.612Z,1.57
2022-09-17T12:46:03.562Z,1.67
2022-09-17T12:50:14.378Z,1.50
2022-09-17T12:54:19.570Z,1.47
2022-09-17T12:58:30.154Z,1.77
2022-09-17T13:03:09.004Z,1.40
2022-09-17T13:07:32.130Z,1.20
2022-09-17T13:11:49.283Z,1.60
2022-09-17T13:15:54.347Z,1.33
2022-09-17T13:20:17.647Z,1.00
2022-09-17T13:24:21.944Z,1.17
2022-09-17T13:28:26.977Z,0.90
2022-09-17T13:32:40.897Z,0.97
2022-09-17T13:36:50.891Z,0.60
2022-09-17T13:40:56.106Z,1.40
2022-09-17T13:45:14.113Z,1.20
2022-09-17T13:49:15.798Z,2.50
2022-09-17T13:53:21.280Z,1.00
2022-09-17T13:57:22.861Z,1.20
2022-09-17T14:01:50.997Z,1.20
2022-09-17T14:05:52.201Z,1.17
2022-09-17T14:10:03.214Z,1.20
2022-09-17T14:14:08.506Z,1.07
2022-09-17T14:18:33.830Z,0.90
2022-09-17T14:22:35.026Z,0.90
2022-09-17T14:26:51.711Z,1.13
2022-09-17T14:30:52.929Z,0.93
2022-09-17T14:34:54.372Z,0.97
2022-09-17T14:38:56.863Z,0.90
2022-09-17T14:42:58.600Z,0.87
2022-09-17T14:47:03.594Z,0.83
2022-09-17T14:51:20.839Z,1.00
2022-09-17T14:55:25.997Z,0.80
2022-09-17T14:59:53.015Z,0.80
2022-09-17T15:04:16.048Z,1.30
2022-09-17T15:08:27.285Z,0.90
2022-09-17T15:12:29.363Z,0.90
2022-09-17T15:16:32.530Z,2.20
2022-09-17T15:20:33.778Z,2.40
2022-09-17T15:24:49.388Z,2.00
2022-09-17T15:28:52.863Z,1.30
2022-09-17T15:32:56.273Z,1.30
2022-09-17T15:37:18.802Z,1.30
2022-09-17T15:41:34.385Z,1.10
2022-09-17T15:45:37.471Z,1.43
2022-09-17T15:49:38.659Z,1.60
2022-09-17T15:53:43.541Z,1.47
2022-09-17T15:57:44.628Z,1.93
2022-09-17T16:01:49.586Z,1.87
2022-09-17T16:05:55.752Z,2.07
2022-09-17T16:09:54.079Z,3.10
2022-09-17T16:13:57.493Z,2.37
2022-09-17T16:17:58.788Z,1.40
2022-09-17T16:21:59.964Z,2.13
2022-09-17T16:26:04.896Z,2.23
2022-09-17T16:30:10.385Z,2.77
2022-09-17T16:34:11.534Z,0.70
2022-09-17T16:38:12.873Z,0.80
2022-09-17T16:42:14.273Z,3.50
2022-09-17T16:46:15.804Z,3.80
2022-09-17T16:50:18.283Z,1.23
2022-09-17T16:54:19.573Z,1.10
2022-09-17T16:58:20.839Z,0.80
2022-09-17T17:02:22.967Z,0.90
2022-09-17T17:06:24.934Z,1.03
2022-09-17T17:10:28.541Z,1.80
2022-09-17T17:14:30.331Z,1.07
2022-09-17T17:18:31.623Z,0.60
2022-09-17T17:22:32.912Z,2.17
2022-09-17T17:39:16.640Z,1.10
2022-09-17T17:43:18.024Z,1.10
2022-09-17T17:47:19.904Z,0.90
2022-09-17T17:51:23.197Z,0.70
2022-09-17T17:55:26.013Z,0.90
2022-09-17T17:59:28.201Z,0.73
2022-09-17T18:03:29.519Z,1.17
2022-09-17T18:07:30.983Z,0.90
2022-09-17T18:11:33.845Z,0.90
2022-09-17T18:15:35.026Z,0.60
2022-09-17T18:19:36.228Z,0.70
2022-09-17T18:23:39.509Z,1.30
2022-09-17T18:27:41.634Z,1.00
2022-09-17T18:31:43.973Z,0.70
2022-09-17T18:35:46.458Z,1.10
2022-09-17T18:40:03.890Z,1.00
2022-09-17T18:43:51.563Z,1.57
2022-09-17T18:47:52.931Z,1.10
2022-09-17T18:51:54.153Z,1.07
2022-09-17T18:55:58.998Z,0.90
2022-09-17T19:00:00.542Z,1.17
2022-09-17T19:04:04.563Z,0.80
2022-09-17T19:08:05.599Z,1.23
2022-09-17T19:12:06.672Z,1.43
2022-09-17T19:16:09.008Z,1.10
2022-09-17T19:20:10.158Z,1.00
2022-09-17T19:24:11.387Z,0.80
2022-09-17T19:28:13.262Z,1.13
2022-09-17T19:32:14.436Z,1.63
2022-09-17T19:36:17.913Z,1.23
2022-09-17T19:40:19.623Z,1.50
2022-09-17T19:44:22.757Z,1.20
2022-09-17T19:48:25.436Z,1.60
2022-09-17T19:52:26.713Z,1.40
2022-09-17T19:56:28.031Z,1.53
2022-09-17T20:00:29.649Z,1.43
2022-09-17T20:04:30.835Z,1.27
2022-09-17T20:08:32.117Z,1.13
2022-09-17T20:12:33.310Z,1.30
2022-09-17T20:16:36.127Z,1.50
2022-09-17T20:20:38.485Z,1.37
2022-09-17T20:24:40.075Z,2.00
2022-09-17T20:28:42.436Z,1.73
2022-09-17T20:32:43.538Z,1.60
2022-09-17T20:36:44.706Z,1.70
2022-09-17T20:40:47.409Z,1.33
2022-09-17T20:44:48.600Z,1.80
2022-09-17T20:48:51.685Z,1.30
2022-09-17T20:52:52.860Z,1.30
2022-09-17T20:56:53.958Z,1.60
2022-09-17T21:00:55.444Z,1.50
2022-09-17T21:04:56.639Z,1.60
2022-09-17T21:09:01.193Z,1.50
2022-09-17T21:13:02.954Z,1.73
2022-09-17T21:17:04.539Z,1.57
2022-09-17T21:21:09.072Z,1.47
2022-09-17T21:25:10.264Z,1.30
2022-09-17T21:29:11.337Z,1.17
2022-09-17T21:33:14.136Z,1.20
2022-09-17T21:37:15.311Z,1.43
2022-09-17T21:41:16.494Z,1.70
2022-09-17T21:45:17.784Z,1.37
2022-09-17T21:49:18.960Z,1.93
2022-09-17T21:53:20.658Z,1.43
2022-09-17T21:57:21.734Z,1.50
2022-09-17T22:01:26.170Z,1.67
2022-09-17T22:05:27.510Z,1.60
2022-09-17T22:09:29.592Z,2.00
2022-09-17T22:13:30.784Z,1.80
2022-09-17T22:17:31.851Z,2.03
2022-09-17T22:21:35.855Z,2.23
2022-09-17T22:25:37.026Z,1.90
2022-09-17T22:29:38.121Z,1.80
2022-09-17T22:33:43.295Z,2.00
2022-09-17T22:37:44.380Z,1.90
2022-09-17T22:41:46.183Z,2.20
2022-09-17T22:45:47.362Z,2.77
2022-09-17T22:49:48.554Z,2.30
2022-09-17T22:53:50.122Z,2.00
2022-09-17T22:57:51.303Z,2.23
2022-09-17T23:01:52.480Z,2.60
2022-09-17T23:06:02.339Z,2.77
2022-09-17T23:10:04.480Z,2.37
2022-09-17T23:14:08.866Z,2.57
2022-09-17T23:18:10.399Z,3.07
2022-09-17T23:22:11.587Z,2.33
2022-09-17T23:26:15.987Z,2.80
2022-09-17T23:30:17.179Z,2.20
2022-09-17T23:34:20.621Z,2.83
2022-09-17T23:38:21.824Z,2.50
2022-09-17T23:42:23.027Z,3.23
2022-09-17T23:46:27.936Z,2.53
2022-09-17T23:50:32.940Z,2.90
2022-09-17T23:54:34.845Z,2.60
2022-09-17T23:58:36.029Z,2.87
